Aérodrome :
LOGIN :

S'inscrire | Disclaimer

   EN    FR    IT 

 










Légende :    VFR   VFR Marginal   IFR   IFR Intensif   IFR Très Intensif
Visi : 
Plafond : 
>= 8 km
>= 3000ft
5 à 8 km
1000 à 3000 ft
1500m à 5 km
500 à 1000 ft
800 à 1500m
200 à 500 ft
< 800m
< 200 ft
Symboles :   Orages  Brouillard  Fortes neiges  Fortes précipitations  Vent > 20 kt
SIGMETs :   Divers  Orages  Givrage  Turbulence  Onde Orograph.  Cendres Volcan.







- Altitude de l'aérodrome : 72 ft
- Code IATA : UDE


EHVK - Volkel Airbase

DERNIER METAR :
  • 240955Z AUTO 10004KT 020V140 9000 HZ FEW350 16/13 Q1023 BLU

METARs EXPIRÉS :
  • 240925Z AUTO 07003KT 030V160 9000 BR NCD 15/12 Q1023 BLU
  • 240855Z AUTO VRB02KT 8000 BR NCD 14/12 Q1023 BLU
  • 240837Z AUTO VRB02KT 8000 BR NCD 13/11 Q1023 BLU
  • 240833Z AUTO VRB02KT 7000 BR NCD 13/11 Q1023 WHT
  • 240825Z AUTO 06003KT 030V100 7000 BR NCD 13/11 Q1023 WHT
  • 240755Z AUTO 06004KT 020V090 6000 BR NCD 11/10 Q1023 WHT
  • 240725Z AUTO VRB01KT 6000 BR NCD 10/10 Q1023 WHT

TAF TAF EHVK
Valide du 24 à 09h jusqu'au 24 à 21h UTC


240829Z 2409/2421 08005KT 8000 NSC
PROB30
TEMPO 2409/2411 1500 BR SCT003
Pas de NOTAMs connus pour ce terrain.



MET'MAP, la Météo Aéronautique d'un coup d'oeil ! - Copyright ORBIFLY Décembre 2007 - Disclaimer

ORBIFLY MET'MAP TEAM :

Programmation & Développement : Alexandra Zaïnal
Conception & Développement : Baudouin d'Aumeries
Co-Programmation & Développement : Marc-Olivier Méhu
Soutien technique & logistique : Manuel Goepfert

Contact : metmap@orbifly.com




SOURCES & CREDITS :

   NOAA